Time;durP1;ratioP1;P1;durP2;ratioP2;P2;SDS_P1;SDS_P2;PMS_P1;PMS_P2;Temp;Humidity;BMP_temperature;BMP_pressure;BME280_temperature;BME280_humidity;BME280_pressure;Samples;Min_cycle;Max_cycle;Signal;HPM_P1;HPM_P2
2022/01/01 00:01:34;;;;;;;8.70;7.82;;;10.70;99.90;;;;;;4978089;28;20203;-72
2022/01/01 00:04:00;;;;;;;7.82;6.80;;;10.70;99.90;;;;;;4977978;28;20208;-72
2022/01/01 00:06:27;;;;;;;7.40;6.70;;;10.70;99.90;;;;;;4978065;28;20238;-71
2022/01/01 00:08:53;;;;;;;8.00;6.53;;;10.70;99.90;;;;;;4978033;28;20204;-73
2022/01/01 00:11:19;;;;;;;6.88;6.28;;;10.80;99.90;;;;;;4976631;28;20196;-71
2022/01/01 00:13:46;;;;;;;7.78;5.30;;;10.80;99.90;;;;;;4977733;28;20551;-71
2022/01/01 00:16:12;;;;;;;5.90;5.40;;;10.80;99.90;;;;;;4977324;28;20207;-71
2022/01/01 00:18:39;;;;;;;8.60;5.95;;;10.70;99.90;;;;;;4977478;28;20222;-71
2022/01/01 00:21:06;;;;;;;4.95;4.55;;;10.70;99.90;;;;;;4977420;28;20243;-71
2022/01/01 00:23:33;;;;;;;4.78;4.47;;;10.70;99.90;;;;;;4977748;28;20207;-71
2022/01/01 00:25:59;;;;;;;5.03;4.50;;;10.60;99.90;;;;;;4976811;28;20273;-72
2022/01/01 00:28:26;;;;;;;5.53;5.13;;;10.60;99.90;;;;;;4977150;28;20206;-72
2022/01/01 00:30:52;;;;;;;5.90;5.32;;;10.50;99.90;;;;;;4976854;28;20232;-71
2022/01/01 00:33:19;;;;;;;5.25;4.75;;;10.50;99.90;;;;;;4976392;28;20265;-71
2022/01/01 00:35:45;;;;;;;5.13;4.68;;;10.40;99.90;;;;;;4977334;28;20200;-72
2022/01/01 00:38:12;;;;;;;7.90;6.68;;;10.40;99.90;;;;;;4977333;28;20254;-71
2022/01/01 00:40:38;;;;;;;7.57;6.78;;;10.40;99.90;;;;;;4977260;28;20265;-71
2022/01/01 00:43:04;;;;;;;10.30;7.28;;;10.40;99.90;;;;;;4976242;28;20203;-72
2022/01/01 00:45:31;;;;;;;9.27;8.27;;;10.30;99.90;;;;;;4976777;28;20200;-72
2022/01/01 00:47:57;;;;;;;8.07;7.38;;;10.40;99.90;;;;;;4977086;28;20210;-71
2022/01/01 00:50:23;;;;;;;11.80;7.45;;;10.30;99.90;;;;;;4977104;28;20254;-71
2022/01/01 00:52:52;;;;;;;8.90;8.00;;;10.30;99.90;;;;;;4976979;28;20249;-71
2022/01/01 00:55:19;;;;;;;7.30;6.60;;;10.30;99.90;;;;;;4976286;28;20203;-72
2022/01/01 00:57:47;;;;;;;7.43;6.30;;;10.30;99.90;;;;;;4976801;28;20211;-72
2022/01/01 01:00:13;;;;;;;6.97;6.10;;;10.30;99.90;;;;;;4976505;28;20200;-71
2022/01/01 01:02:40;;;;;;;5.63;5.05;;;10.30;99.90;;;;;;4976843;28;20207;-71
2022/01/01 01:05:07;;;;;;;9.20;8.05;;;10.20;99.90;;;;;;4975805;28;20203;-71
2022/01/01 01:07:34;;;;;;;6.95;5.90;;;10.30;99.90;;;;;;4975735;28;20251;-71
2022/01/01 01:10:01;;;;;;;7.85;6.47;;;10.30;99.90;;;;;;4959058;28;20253;-72
2022/01/01 01:12:37;;;;;;;9.93;5.45;;;10.20;99.90;;;;;;4975628;28;20203;-72
2022/01/01 01:15:04;;;;;;;8.77;5.97;;;10.20;99.90;;;;;;4976787;28;20250;-72
2022/01/01 01:17:30;;;;;;;10.68;6.53;;;10.20;99.90;;;;;;4976460;28;20559;-72
2022/01/01 01:19:57;;;;;;;7.18;5.75;;;10.20;99.90;;;;;;4976322;28;20254;-72
2022/01/01 01:22:23;;;;;;;8.27;5.55;;;10.20;99.90;;;;;;4958520;28;20725;-72
2022/01/01 01:24:49;;;;;;;7.20;6.50;;;10.20;99.90;;;;;;4976400;28;20249;-72
2022/01/01 01:27:16;;;;;;;6.95;6.25;;;10.20;99.90;;;;;;4976456;28;20294;-72
2022/01/01 01:29:45;;;;;;;7.78;6.53;;;10.10;99.90;;;;;;4976319;28;20636;-72
2022/01/01 01:32:11;;;;;;;11.18;6.60;;;10.10;99.90;;;;;;4976631;28;20269;-72
2022/01/01 01:34:38;;;;;;;10.50;7.28;;;10.10;99.90;;;;;;4976180;28;20628;-72
2022/01/01 01:37:04;;;;;;;8.20;6.75;;;10.10;99.90;;;;;;4976113;28;20222;-72
2022/01/01 01:39:31;;;;;;;7.32;6.50;;;10.10;99.90;;;;;;4976108;28;20211;-72
2022/01/01 01:41:57;;;;;;;7.88;7.07;;;10.10;99.90;;;;;;4976171;28;20207;-72
2022/01/01 01:44:26;;;;;;;8.10;7.30;;;10.10;99.90;;;;;;4976352;28;20199;-72
2022/01/01 01:46:53;;;;;;;6.63;6.00;;;10.10;99.90;;;;;;4975543;28;20227;-72
2022/01/01 01:49:19;;;;;;;10.35;7.00;;;10.10;99.90;;;;;;4975336;28;20200;-72
2022/01/01 01:51:45;;;;;;;6.20;5.60;;;10.10;99.90;;;;;;4976220;28;20593;-71
2022/01/01 01:54:13;;;;;;;7.45;6.72;;;10.00;99.90;;;;;;4975438;28;20211;-71
2022/01/01 01:56:41;;;;;;;7.40;6.57;;;10.00;99.90;;;;;;4974898;28;20211;-71
2022/01/01 01:59:07;;;;;;;7.32;6.25;;;10.10;99.90;;;;;;4975753;28;20215;-72
2022/01/01 02:01:33;;;;;;;7.70;6.90;;;10.10;99.90;;;;;;4975845;28;20215;-72
2022/01/01 02:04:00;;;;;;;8.05;7.35;;;10.00;99.90;;;;;;4975424;28;20664;-72
2022/01/01 02:06:26;;;;;;;7.38;6.70;;;10.00;99.90;;;;;;4975476;28;20626;-71
2022/01/01 02:08:54;;;;;;;7.90;7.10;;;10.00;99.90;;;;;;4974670;28;20200;-71
2022/01/01 02:11:21;;;;;;;10.32;7.18;;;10.10;99.90;;;;;;4975197;28;20210;-71
2022/01/01 02:18:52;;;;;;;8.70;7.38;;;10.00;99.90;;;;;;4975269;28;20258;-71
2022/01/01 02:21:20;;;;;;;8.70;7.38;;;10.00;99.90;;;;;;4975109;28;20230;-71
2022/01/01 02:23:48;;;;;;;10.82;8.43;;;10.00;99.90;;;;;;4973809;28;20685;-71
2022/01/01 02:26:16;;;;;;;10.10;9.02;;;10.00;99.90;;;;;;4974762;28;20290;-72
2022/01/01 02:28:45;;;;;;;7.35;6.63;;;10.00;99.90;;;;;;4974990;28;20203;-72
2022/01/01 02:31:13;;;;;;;7.05;6.35;;;10.00;99.90;;;;;;4974618;28;20199;-71
2022/01/01 02:33:41;;;;;;;8.23;6.35;;;10.00;99.90;;;;;;4974673;28;20250;-71
2022/01/01 02:36:07;;;;;;;10.75;7.80;;;10.00;99.90;;;;;;4957168;28;20674;-72
2022/01/01 02:38:35;;;;;;;9.30;7.70;;;10.00;99.90;;;;;;4975116;28;20204;-72
2022/01/01 02:41:02;;;;;;;10.25;7.25;;;9.90;99.90;;;;;;4974646;28;20211;-72
2022/01/01 02:43:31;;;;;;;8.55;7.72;;;10.00;99.90;;;;;;4974764;28;20199;-72
2022/01/01 02:45:57;;;;;;;9.43;7.65;;;9.90;99.90;;;;;;4974090;28;20624;-72
2022/01/01 02:48:24;;;;;;;9.35;8.13;;;10.00;99.90;;;;;;4974469;28;20207;-71
2022/01/01 02:50:53;;;;;;;9.02;8.20;;;10.00;99.90;;;;;;4974759;28;20226;-72
2022/01/01 02:53:19;;;;;;;8.25;7.35;;;10.00;99.90;;;;;;4974410;28;20203;-72
2022/01/01 02:55:46;;;;;;;8.63;6.88;;;10.00;99.90;;;;;;4974638;28;20204;-72
2022/01/01 02:58:13;;;;;;;12.20;9.32;;;10.00;99.90;;;;;;4974796;28;20203;-72
2022/01/01 03:00:40;;;;;;;10.73;6.88;;;10.00;99.90;;;;;;4974718;28;20199;-71
2022/01/01 03:03:07;;;;;;;9.70;8.40;;;10.00;99.90;;;;;;4974365;28;20737;-72
2022/01/01 03:05:35;;;;;;;8.55;7.30;;;10.00;99.90;;;;;;4974569;28;20211;-71
2022/01/01 03:08:02;;;;;;;9.02;8.23;;;10.00;99.90;;;;;;4974548;28;20267;-72
2022/01/01 03:10:28;;;;;;;10.38;8.00;;;9.90;99.90;;;;;;4974496;28;20203;-72
2022/01/01 03:12:55;;;;;;;15.25;7.85;;;9.90;99.90;;;;;;4975024;28;20208;-72
2022/01/01 03:15:21;;;;;;;9.10;7.82;;;9.90;99.90;;;;;;4974011;28;20199;-72
2022/01/01 03:17:48;;;;;;;8.82;7.68;;;9.90;99.90;;;;;;4974084;28;20281;-72
2022/01/01 03:20:14;;;;;;;9.18;7.47;;;9.90;99.90;;;;;;4974141;28;20671;-72
2022/01/01 03:22:40;;;;;;;10.15;7.38;;;9.90;99.90;;;;;;4974222;28;20250;-72
2022/01/01 03:25:07;;;;;;;8.25;7.45;;;9.90;99.90;;;;;;4973985;28;20211;-72
2022/01/01 03:27:33;;;;;;;8.15;7.35;;;9.90;99.90;;;;;;4974091;28;20219;-72
2022/01/01 03:30:00;;;;;;;8.15;7.10;;;9.80;99.90;;;;;;4974093;28;20331;-71
2022/01/01 03:32:26;;;;;;;12.02;7.93;;;9.80;99.90;;;;;;4973476;28;20199;-72
2022/01/01 03:34:53;;;;;;;7.55;6.85;;;9.80;99.90;;;;;;4976170;28;20214;-72
2022/01/01 03:37:19;;;;;;;11.20;7.90;;;9.80;99.90;;;;;;4977935;28;20207;-71
2022/01/01 03:39:45;;;;;;;10.45;7.55;;;9.70;99.90;;;;;;4977949;28;20261;-72
2022/01/01 03:42:12;;;;;;;8.48;7.40;;;9.60;99.90;;;;;;4960102;28;20671;-71
2022/01/01 03:44:38;;;;;;;9.13;6.93;;;9.60;99.90;;;;;;4978136;28;20265;-71
2022/01/01 03:47:09;;;;;;;8.75;7.13;;;9.50;99.90;;;;;;4977986;28;20285;-71
2022/01/01 03:49:37;;;;;;;8.73;7.65;;;9.50;99.90;;;;;;4976927;28;20203;-71
2022/01/01 03:52:05;;;;;;;9.75;7.78;;;9.60;99.90;;;;;;4978124;28;20350;-71
2022/01/01 03:54:32;;;;;;;8.02;6.93;;;9.50;99.90;;;;;;4977951;28;20250;-71
2022/01/01 03:56:59;;;;;;;9.70;8.18;;;9.40;99.90;;;;;;4978004;28;20206;-71
2022/01/01 03:59:25;;;;;;;9.10;7.03;;;9.40;99.90;;;;;;4977841;28;20207;-71
2022/01/01 04:01:52;;;;;;;8.93;7.35;;;9.30;99.90;;;;;;4978137;28;20257;-71
2022/01/01 04:04:22;;;;;;;10.57;8.68;;;9.20;99.90;;;;;;4977924;28;20569;-71
2022/01/01 04:06:49;;;;;;;12.07;9.25;;;9.10;99.90;;;;;;4976890;28;20235;-71
2022/01/01 04:09:15;;;;;;;11.07;8.70;;;9.10;99.90;;;;;;4977715;28;20269;-71
2022/01/01 04:11:42;;;;;;;9.18;8.05;;;9.00;99.90;;;;;;4977829;28;20567;-71
2022/01/01 04:14:12;;;;;;;12.90;10.13;;;9.10;99.90;;;;;;4977368;28;20210;-72
2022/01/01 04:16:39;;;;;;;10.88;8.30;;;9.00;99.90;;;;;;4977527;28;20269;-71
2022/01/01 04:19:06;;;;;;;12.05;8.48;;;9.10;99.90;;;;;;4977241;28;20560;-71
2022/01/01 04:21:32;;;;;;;10.48;9.00;;;9.10;99.90;;;;;;4976514;28;20242;-71
2022/01/01 04:23:59;;;;;;;11.55;8.73;;;9.00;99.90;;;;;;4977244;28;20265;-70
2022/01/01 04:26:25;;;;;;;9.75;8.15;;;8.90;99.90;;;;;;4976631;28;20254;-70
2022/01/01 04:28:52;;;;;;;13.57;8.40;;;8.90;99.90;;;;;;4977520;28;20560;-71
2022/01/01 04:31:18;;;;;;;10.05;7.85;;;9.00;99.90;;;;;;4977426;28;20199;-71
2022/01/01 04:33:45;;;;;;;9.32;8.32;;;8.90;99.90;;;;;;4977593;28;20199;-71
2022/01/01 04:36:12;;;;;;;10.27;8.45;;;8.80;99.90;;;;;;4976965;28;20213;-71
2022/01/01 04:38:41;;;;;;;9.55;7.88;;;8.80;99.90;;;;;;4976404;28;20207;-71
2022/01/01 04:41:11;;;;;;;16.48;8.32;;;8.70;99.90;;;;;;4976779;28;20250;-71
2022/01/01 04:43:38;;;;;;;11.40;8.70;;;8.80;99.90;;;;;;4976734;28;20273;-71
2022/01/01 04:46:04;;;;;;;16.58;9.85;;;8.90;99.90;;;;;;4975890;28;20211;-71
2022/01/01 04:48:31;;;;;;;13.02;9.75;;;9.00;99.90;;;;;;4976830;28;20224;-71
2022/01/01 04:50:57;;;;;;;12.18;9.80;;;9.00;99.90;;;;;;4976995;28;20200;-70
2022/01/01 04:53:24;;;;;;;11.57;9.05;;;9.10;99.90;;;;;;4976590;28;20203;-70
2022/01/01 04:55:50;;;;;;;13.20;8.90;;;9.10;99.90;;;;;;4976952;28;20238;-70
2022/01/01 04:58:17;;;;;;;17.48;11.90;;;9.10;99.90;;;;;;4976213;28;20273;-70
2022/01/01 05:00:43;;;;;;;16.42;11.52;;;9.10;99.90;;;;;;4976484;28;20214;-70
2022/01/01 05:03:10;;;;;;;16.50;12.40;;;9.10;99.90;;;;;;4959090;28;20207;-71
2022/01/01 05:05:36;;;;;;;17.58;13.98;;;9.10;99.90;;;;;;4976730;28;20603;-71
2022/01/01 05:08:03;;;;;;;23.15;16.80;;;9.10;99.90;;;;;;4976851;28;20287;-71
2022/01/01 05:10:29;;;;;;;24.67;16.67;;;9.10;99.90;;;;;;4976978;28;20249;-70
2022/01/01 05:12:55;;;;;;;24.33;16.65;;;9.10;99.90;;;;;;4976581;28;20204;-72
2022/01/01 05:15:22;;;;;;;20.63;15.77;;;9.10;99.90;;;;;;4976711;28;20207;-71
2022/01/01 05:17:48;;;;;;;24.33;16.75;;;9.10;99.90;;;;;;4976428;28;20628;-71
2022/01/01 05:20:15;;;;;;;25.60;17.60;;;9.10;99.90;;;;;;4975988;28;20211;-71
2022/01/01 05:22:41;;;;;;;23.50;16.75;;;9.10;99.90;;;;;;4976285;28;20210;-71
2022/01/01 05:25:08;;;;;;;25.08;17.40;;;9.10;99.90;;;;;;4976311;28;20668;-71
2022/01/01 05:27:36;;;;;;;27.20;17.88;;;9.10;99.90;;;;;;4976249;28;20575;-71
2022/01/01 05:30:05;;;;;;;24.92;17.08;;;9.10;99.90;;;;;;4976138;28;20688;-71
2022/01/01 05:32:31;;;;;;;28.90;18.27;;;9.10;99.90;;;;;;4976154;28;20203;-70
2022/01/01 05:34:58;;;;;;;32.40;19.55;;;9.10;99.90;;;;;;4976108;28;20626;-70
2022/01/01 05:37:24;;;;;;;27.27;19.13;;;9.00;99.90;;;;;;4976496;28;20266;-70
2022/01/01 05:39:51;;;;;;;32.08;20.25;;;9.00;99.90;;;;;;4976410;28;20211;-70
2022/01/01 05:42:17;;;;;;;32.60;22.30;;;9.00;99.90;;;;;;4975944;28;20266;-70
2022/01/01 05:44:44;;;;;;;31.65;19.52;;;8.90;99.90;;;;;;4975811;28;20618;-70
2022/01/01 05:47:10;;;;;;;27.95;20.50;;;8.90;99.90;;;;;;4975837;28;20235;-70
2022/01/01 05:49:37;;;;;;;31.45;18.65;;;8.90;99.90;;;;;;4976183;28;20255;-71
2022/01/01 05:52:03;;;;;;;30.58;19.60;;;8.80;99.90;;;;;;4976217;28;20203;-71
2022/01/01 05:54:30;;;;;;;31.02;20.40;;;8.80;99.90;;;;;;4975261;28;20203;-71
2022/01/01 05:56:56;;;;;;;27.63;20.45;;;8.80;99.90;;;;;;4975618;28;20195;-71
2022/01/01 05:59:22;;;;;;;33.15;21.13;;;8.80;99.90;;;;;;4976071;28;20199;-71
2022/01/01 06:01:49;;;;;;;31.45;20.38;;;8.80;99.90;;;;;;4975948;28;20273;-71
2022/01/01 06:04:15;;;;;;;30.33;20.23;;;8.70;99.90;;;;;;4975723;28;20222;-71
2022/01/01 06:06:42;;;;;;;30.90;21.92;;;8.70;99.90;;;;;;4975817;28;20277;-71
2022/01/01 06:09:08;;;;;;;30.80;20.90;;;8.70;99.90;;;;;;4975502;28;20234;-71
2022/01/01 06:11:35;;;;;;;29.80;19.67;;;8.70;99.90;;;;;;4976049;28;20565;-71
2022/01/01 06:14:01;;;;;;;37.00;19.95;;;8.60;99.90;;;;;;4975234;28;20561;-71
2022/01/01 06:16:28;;;;;;;29.73;19.88;;;8.60;99.90;;;;;;4975636;28;20207;-71
2022/01/01 06:18:54;;;;;;;29.25;19.00;;;8.60;99.90;;;;;;4957897;28;20729;-71
2022/01/01 06:21:21;;;;;;;31.50;19.35;;;8.50;99.90;;;;;;4975409;28;20281;-71
2022/01/01 06:23:47;;;;;;;30.30;19.75;;;8.50;99.90;;;;;;4975390;28;20214;-71
2022/01/01 06:26:15;;;;;;;31.58;20.67;;;8.50;99.90;;;;;;4975598;28;20207;-71
2022/01/01 06:28:42;;;;;;;32.75;20.75;;;8.40;99.90;;;;;;4975066;28;20215;-71
2022/01/01 06:31:08;;;;;;;27.52;19.50;;;8.30;99.90;;;;;;4975472;28;20207;-71
2022/01/01 06:33:34;;;;;;;27.17;19.70;;;8.30;99.90;;;;;;4975548;28;20195;-71
2022/01/01 06:36:01;;;;;;;28.52;19.58;;;8.30;99.90;;;;;;4975734;28;20215;-71
2022/01/01 06:38:27;;;;;;;29.92;20.52;;;8.20;99.90;;;;;;4976280;28;20226;-71
2022/01/01 06:40:53;;;;;;;28.40;21.02;;;8.20;99.90;;;;;;4976296;28;20211;-71
2022/01/01 06:43:23;;;;;;;27.92;19.80;;;8.20;99.90;;;;;;4976680;28;20211;-71
2022/01/01 06:45:49;;;;;;;28.80;19.65;;;8.20;99.90;;;;;;4976192;28;20566;-71
2022/01/01 06:48:16;;;;;;;29.75;20.85;;;8.10;99.90;;;;;;4975812;28;20215;-71
2022/01/01 06:50:42;;;;;;;31.25;20.67;;;8.00;99.90;;;;;;4976357;28;20199;-71
2022/01/01 06:53:11;;;;;;;31.35;20.15;;;8.00;99.90;;;;;;4975538;28;20199;-72
2022/01/01 06:55:38;;;;;;;34.25;21.08;;;8.00;99.90;;;;;;4975629;28;20265;-72
2022/01/01 06:58:04;;;;;;;33.85;25.70;;;8.00;99.90;;;;;;4976228;28;20266;-72
2022/01/01 07:00:31;;;;;;;32.92;24.23;;;8.10;99.90;;;;;;4976362;28;20213;-72
2022/01/01 07:02:57;;;;;;;30.77;21.73;;;8.10;99.90;;;;;;4975754;28;20679;-72
2022/01/01 07:05:24;;;;;;;34.95;20.40;;;8.00;99.90;;;;;;4975901;28;20266;-72
2022/01/01 07:07:50;;;;;;;32.33;21.60;;;7.90;99.90;;;;;;4976129;28;20643;-72
2022/01/01 07:10:17;;;;;;;28.25;19.40;;;7.90;99.90;;;;;;4975891;28;20273;-72
2022/01/01 07:12:43;;;;;;;36.30;27.83;;;7.90;99.90;;;;;;4975961;28;20686;-72
2022/01/01 07:15:10;;;;;;;27.45;19.55;;;7.80;99.90;;;;;;4976027;28;20203;-72
2022/01/01 07:17:37;;;;;;;32.72;23.25;;;8.00;99.90;;;;;;4975418;28;20258;-72
2022/01/01 07:20:05;;;;;;;33.55;20.85;;;8.10;99.90;;;;;;4976117;28;20285;-72
2022/01/01 07:22:31;;;;;;;33.65;19.45;;;8.10;99.90;;;;;;4975133;28;20239;-72
2022/01/01 07:24:58;;;;;;;24.70;18.58;;;8.20;99.90;;;;;;4975573;28;20274;-72
2022/01/01 07:27:24;;;;;;;26.75;19.05;;;8.30;99.90;;;;;;4975902;28;20289;-72
2022/01/01 07:29:50;;;;;;;21.73;16.52;;;8.30;99.90;;;;;;4974501;28;20258;-72
2022/01/01 07:32:17;;;;;;;23.00;16.42;;;8.30;99.90;;;;;;4974711;28;20276;-72
2022/01/01 07:34:43;;;;;;;22.73;17.27;;;8.30;99.90;;;;;;4958100;28;20303;-72
2022/01/01 07:37:10;;;;;;;22.25;16.63;;;8.20;99.90;;;;;;4975503;28;20207;-72
2022/01/01 07:39:36;;;;;;;26.77;18.02;;;8.20;99.90;;;;;;4973852;28;20200;-72
2022/01/01 07:42:03;;;;;;;28.48;19.00;;;8.20;99.90;;;;;;4975486;28;20211;-72
2022/01/01 07:44:29;;;;;;;25.30;18.85;;;8.10;99.90;;;;;;4975972;28;20211;-72
2022/01/01 07:46:55;;;;;;;29.30;19.85;;;8.10;99.90;;;;;;4979466;28;20726;-72
2022/01/01 07:49:22;;;;;;;23.42;17.58;;;8.10;99.90;;;;;;4994862;28;20225;-72
2022/01/01 07:51:48;;;;;;;29.10;18.60;;;8.10;99.90;;;;;;4995074;28;20203;-72
2022/01/01 07:54:15;;;;;;;24.70;17.75;;;8.10;99.90;;;;;;4994814;28;20206;-72
2022/01/01 07:56:41;;;;;;;22.85;17.90;;;8.20;99.90;;;;;;4995335;28;20202;-72
2022/01/01 07:59:07;;;;;;;26.70;17.83;;;8.20;99.90;;;;;;4977572;28;20218;-72
2022/01/01 08:01:35;;;;;;;27.85;18.38;;;8.20;99.90;;;;;;4994052;28;20202;-72
2022/01/01 08:04:02;;;;;;;25.90;17.63;;;8.30;99.90;;;;;;4994381;28;20647;-73
2022/01/01 08:06:32;;;;;;;22.73;16.38;;;8.30;99.90;;;;;;4976951;28;20576;-74
2022/01/01 08:08:58;;;;;;;22.20;17.73;;;8.40;99.90;;;;;;4992555;28;20226;-73
2022/01/01 08:11:25;;;;;;;22.77;17.65;;;8.40;99.90;;;;;;4994709;28;20663;-73
2022/01/01 08:13:54;;;;;;;26.33;18.30;;;8.50;99.90;;;;;;4976832;28;20206;-73
2022/01/01 08:16:21;;;;;;;25.20;16.85;;;8.50;99.90;;;;;;4976870;28;20566;-73
2022/01/01 08:18:48;;;;;;;24.13;16.67;;;8.50;99.90;;;;;;4994138;28;20599;-73
2022/01/01 08:21:14;;;;;;;20.10;15.57;;;8.50;99.90;;;;;;4996375;28;20317;-73
2022/01/01 08:23:41;;;;;;;24.40;18.23;;;8.50;99.90;;;;;;4998243;28;20209;-73
2022/01/01 08:26:07;;;;;;;20.92;16.63;;;8.60;99.90;;;;;;4998081;28;20207;-73
2022/01/01 08:28:34;;;;;;;23.17;16.75;;;8.70;99.90;;;;;;4998269;28;20219;-73
2022/01/01 08:31:00;;;;;;;28.08;15.82;;;8.70;99.90;;;;;;4980167;28;20198;-72
2022/01/01 08:33:27;;;;;;;24.88;15.98;;;8.80;99.90;;;;;;4997907;28;20214;-72
2022/01/01 08:35:53;;;;;;;18.83;15.48;;;8.90;99.90;;;;;;4997663;28;20202;-73
2022/01/01 08:38:20;;;;;;;25.63;17.25;;;9.00;99.90;;;;;;4980301;28;20202;-73
2022/01/01 08:40:46;;;;;;;21.25;15.93;;;9.10;99.90;;;;;;4997227;28;20207;-72
2022/01/01 08:43:12;;;;;;;18.65;15.27;;;9.00;99.90;;;;;;4996912;28;20253;-72
2022/01/01 08:45:39;;;;;;;20.92;15.45;;;9.10;99.90;;;;;;4996159;28;20211;-73
2022/01/01 08:48:06;;;;;;;21.27;16.33;;;9.20;99.90;;;;;;4995786;28;20219;-72
2022/01/01 08:50:33;;;;;;;19.25;15.73;;;9.20;99.90;;;;;;4996845;28;20677;-73
2022/01/01 08:53:00;;;;;;;19.80;15.73;;;9.20;99.90;;;;;;4996617;28;20206;-73
2022/01/01 08:55:29;;;;;;;18.60;15.02;;;9.20;99.90;;;;;;4995976;28;20199;-73
2022/01/01 08:57:55;;;;;;;24.52;16.27;;;9.20;99.90;;;;;;4996696;28;20210;-73
2022/01/01 09:00:21;;;;;;;20.98;15.77;;;9.20;99.90;;;;;;4996020;28;20265;-73
2022/01/01 09:02:48;;;;;;;18.92;15.10;;;9.30;99.90;;;;;;4978889;28;20268;-73
2022/01/01 09:05:14;;;;;;;18.60;13.85;;;9.40;99.90;;;;;;4996515;28;20721;-73
2022/01/01 09:07:40;;;;;;;18.85;15.60;;;9.40;99.90;;;;;;4996649;28;20226;-72
2022/01/01 09:10:07;;;;;;;17.70;12.85;;;9.40;99.90;;;;;;4997011;28;20203;-72
2022/01/01 09:12:34;;;;;;;17.90;14.07;;;9.50;99.90;;;;;;4996487;28;20241;-73
2022/01/01 09:15:00;;;;;;;20.88;14.13;;;9.60;99.90;;;;;;4996755;28;20202;-73
2022/01/01 09:17:26;;;;;;;16.35;13.50;;;9.70;99.90;;;;;;4997071;28;20280;-73
2022/01/01 09:19:53;;;;;;;18.70;14.00;;;9.70;99.90;;;;;;4996528;28;20237;-72
2022/01/01 09:22:19;;;;;;;22.25;14.43;;;9.80;99.90;;;;;;4995777;28;20230;-73
2022/01/01 09:24:46;;;;;;;20.05;14.48;;;9.90;99.90;;;;;;4996402;28;20314;-73
2022/01/01 09:27:12;;;;;;;21.38;14.48;;;10.10;99.90;;;;;;4996653;28;20203;-73
2022/01/01 09:29:39;;;;;;;19.52;12.90;;;10.20;99.90;;;;;;4996678;28;20222;-72
2022/01/01 09:32:06;;;;;;;23.00;15.52;;;10.30;99.90;;;;;;4996298;28;20277;-71
2022/01/01 09:34:32;;;;;;;19.35;14.70;;;10.30;99.90;;;;;;4995730;28;20218;-73
2022/01/01 09:36:58;;;;;;;17.05;14.50;;;10.30;99.90;;;;;;4996071;28;20206;-71
2022/01/01 09:39:25;;;;;;;19.25;13.35;;;10.40;99.90;;;;;;4996259;28;20579;-73
2022/01/01 09:41:52;;;;;;;17.35;13.13;;;10.50;99.90;;;;;;4995942;28;20665;-72
2022/01/01 09:44:20;;;;;;;21.30;14.13;;;10.30;99.90;;;;;;4996616;28;20210;-73
2022/01/01 09:46:49;;;;;;;18.10;13.25;;;10.30;99.90;;;;;;4996020;28;20213;-72
2022/01/01 09:49:17;;;;;;;18.63;13.30;;;10.30;99.90;;;;;;4996204;28;20273;-73
2022/01/01 09:51:44;;;;;;;15.70;13.20;;;10.50;99.90;;;;;;4995817;28;20206;-73
2022/01/01 09:54:12;;;;;;;16.85;12.70;;;10.50;99.90;;;;;;4995873;28;20209;-72
2022/01/01 09:56:38;;;;;;;18.63;12.40;;;10.50;99.90;;;;;;4995844;28;20206;-72
2022/01/01 09:59:05;;;;;;;16.70;12.38;;;10.70;99.90;;;;;;4995893;28;20260;-73
2022/01/01 10:01:32;;;;;;;15.65;12.63;;;10.90;99.90;;;;;;4995331;28;20202;-72
2022/01/01 10:03:59;;;;;;;15.43;12.68;;;11.00;99.90;;;;;;4994814;28;20207;-72
2022/01/01 10:06:29;;;;;;;15.80;11.85;;;11.00;99.90;;;;;;4994914;28;20620;-72
2022/01/01 10:08:59;;;;;;;15.70;11.70;;;11.00;99.90;;;;;;4995375;28;20576;-73
2022/01/01 10:11:27;;;;;;;13.23;10.90;;;11.10;99.90;;;;;;4995993;28;20581;-72
2022/01/01 10:13:53;;;;;;;16.30;11.40;;;11.20;99.90;;;;;;4994996;28;20684;-73
2022/01/01 10:16:20;;;;;;;13.33;10.43;;;11.40;99.90;;;;;;4995865;28;20606;-72
2022/01/01 10:18:52;;;;;;;12.77;10.60;;;11.30;99.90;;;;;;4995397;28;20596;-72
2022/01/01 10:21:24;;;;;;;14.20;10.23;;;11.30;99.90;;;;;;4994752;28;20665;-72
2022/01/01 10:23:52;;;;;;;12.97;9.90;;;11.30;99.90;;;;;;4994981;28;20608;-72
2022/01/01 10:29:28;;;;;;;13.82;10.32;;;11.40;99.90;;;;;;4995287;28;20615;-72
2022/01/01 10:32:00;;;;;;;13.23;9.93;;;11.40;99.90;;;;;;4995228;28;20256;-72
2022/01/01 10:34:44;;;;;;;12.60;9.17;;;11.60;99.90;;;;;;4994770;28;20301;-73
2022/01/01 10:37:13;;;;;;;11.37;9.80;;;11.40;99.90;;;;;;4995555;28;20578;-73
2022/01/01 10:39:54;;;;;;;11.82;9.23;;;11.40;99.90;;;;;;4995193;28;20618;-72
2022/01/01 10:42:21;;;;;;;10.70;8.87;;;11.50;99.90;;;;;;4994784;28;20584;-72
2022/01/01 10:44:49;;;;;;;12.50;9.80;;;11.70;99.90;;;;;;4994084;28;21105;-72
2022/01/01 10:47:21;;;;;;;11.47;9.10;;;11.70;99.90;;;;;;4995184;28;20614;-72
2022/01/01 10:52:28;;;;;;;9.97;8.83;;;12.10;99.90;;;;;;4977946;28;20202;-73
2022/01/01 10:55:00;;;;;;;16.13;12.40;;;12.40;99.90;;;;;;4994689;28;20670;-72
2022/01/01 10:57:41;;;;;;;13.27;10.63;;;12.70;99.90;;;;;;4994334;28;20618;-73
2022/01/01 11:00:14;;;;;;;10.53;8.57;;;12.90;99.90;;;;;;4977434;28;20946;-72
2022/01/01 11:02:49;;;;;;;10.00;8.63;;;13.00;99.90;;;;;;4994801;28;20703;-72
2022/01/01 11:05:24;;;;;;;10.60;8.97;;;12.70;99.90;;;;;;4977356;28;20687;-72
2022/01/01 11:07:52;;;;;;;11.23;8.63;;;12.50;99.90;;;;;;4995645;28;20634;-73
2022/01/01 11:10:20;;;;;;;9.10;8.20;;;12.80;99.90;;;;;;4994439;28;20617;-73
2022/01/01 11:12:46;;;;;;;12.43;8.47;;;13.40;99.90;;;;;;4977034;28;21240;-72
2022/01/01 11:15:14;;;;;;;10.30;9.00;;;13.40;99.90;;;;;;4994342;28;20596;-72
2022/01/01 11:17:42;;;;;;;9.57;8.37;;;12.90;99.90;;;;;;4977102;28;20625;-73
2022/01/01 11:20:10;;;;;;;10.23;8.60;;;13.00;99.90;;;;;;4994639;28;20617;-73
2022/01/01 11:22:36;;;;;;;10.27;8.40;;;13.00;99.90;;;;;;4994458;28;20656;-72
2022/01/01 11:25:04;;;;;;;10.30;9.20;;;13.10;99.90;;;;;;4993881;28;20672;-72
2022/01/01 11:27:31;;;;;;;9.70;8.63;;;13.30;99.90;;;;;;4994819;28;20610;-72
2022/01/01 11:29:59;;;;;;;10.50;9.10;;;13.50;99.90;;;;;;4993488;28;20677;-72
2022/01/01 11:32:39;;;;;;;12.23;10.23;;;13.30;99.90;;;;;;4994591;28;20626;-73
2022/01/01 11:35:11;;;;;;;10.13;8.00;;;13.30;99.90;;;;;;4996024;28;20936;-72
2022/01/01 11:37:54;;;;;;;9.00;8.10;;;13.20;99.90;;;;;;4995937;28;20618;-72
2022/01/01 11:40:21;;;;;;;13.27;9.70;;;13.20;99.90;;;;;;4994427;28;20589;-72
2022/01/01 11:42:48;;;;;;;9.70;8.70;;;13.60;99.90;;;;;;4994094;28;20679;-72
2022/01/01 11:45:41;;;;;;;12.30;8.27;;;13.80;99.90;;;;;;4994201;28;20624;-73
2022/01/01 11:48:41;;;;;;;11.50;8.47;;;14.00;99.90;;;;;;4993830;28;20614;-72
2022/01/01 11:51:22;;;;;;;12.20;8.83;;;14.00;99.90;;;;;;4961391;28;21230;-72
2022/01/01 11:54:22;;;;;;;9.30;8.40;;;14.10;99.90;;;;;;4993913;28;20682;-72
2022/01/01 11:56:52;;;;;;;10.77;9.40;;;14.20;99.90;;;;;;4996862;28;20617;-73
2022/01/01 11:59:37;;;;;;;10.20;8.17;;;14.10;99.90;;;;;;4997900;28;20582;-72
2022/01/01 12:02:18;;;;;;;9.37;8.23;;;14.30;99.90;;;;;;4997795;28;20582;-72
2022/01/01 12:04:46;;;;;;;9.80;8.80;;;14.30;99.90;;;;;;4998125;28;21005;-73
2022/01/01 12:07:28;;;;;;;12.60;10.80;;;14.40;99.90;;;;;;4997538;28;20650;-72
2022/01/01 12:10:06;;;;;;;12.80;8.93;;;14.40;99.90;;;;;;4998253;28;20676;-73
2022/01/01 12:12:47;;;;;;;9.67;8.67;;;14.50;99.90;;;;;;4997704;28;20625;-73
2022/01/01 12:15:35;;;;;;;8.83;8.00;;;14.50;99.90;;;;;;4997753;28;21009;-73
2022/01/01 12:18:10;;;;;;;13.17;9.00;;;14.90;99.90;;;;;;4998710;28;20566;-73
2022/01/01 12:20:41;;;;;;;8.70;7.90;;;15.10;99.90;;;;;;4997831;28;20651;-72
2022/01/01 12:23:12;;;;;;;9.87;8.87;;;15.30;99.90;;;;;;4997457;28;20640;-72
2022/01/01 12:25:40;;;;;;;8.10;7.40;;;15.50;99.90;;;;;;4998102;28;20588;-72
2022/01/01 12:28:09;;;;;;;9.40;8.50;;;15.60;99.90;;;;;;4997663;28;21179;-72
2022/01/01 12:30:43;;;;;;;8.60;7.70;;;15.40;99.90;;;;;;4997627;28;21165;-73
2022/01/01 12:33:21;;;;;;;8.87;7.97;;;15.00;99.90;;;;;;4997844;28;20609;-71
2022/01/01 12:35:50;;;;;;;9.83;8.47;;;15.00;99.90;;;;;;4997208;28;20614;-73
2022/01/01 12:38:29;;;;;;;10.70;8.40;;;15.10;99.90;;;;;;4997147;28;20680;-72
2022/01/01 12:40:59;;;;;;;10.63;8.83;;;15.40;99.90;;;;;;4997532;28;20570;-72
2022/01/01 12:43:28;;;;;;;10.23;8.70;;;15.50;99.90;;;;;;4996983;28;20616;-72
2022/01/01 12:45:56;;;;;;;10.63;7.83;;;15.40;99.90;;;;;;4979835;28;20629;-72
2022/01/01 12:48:24;;;;;;;12.10;7.90;;;15.70;99.90;;;;;;4997676;28;20605;-72
2022/01/01 12:51:02;;;;;;;8.97;8.13;;;15.80;99.90;;;;;;4997337;28;20613;-72
2022/01/01 12:53:29;;;;;;;9.13;8.00;;;16.00;99.90;;;;;;4997281;28;20589;-72
2022/01/01 12:56:06;;;;;;;11.33;7.80;;;15.70;99.90;;;;;;4996770;28;20629;-73